createdAt,value
2019-04-23T00:00:15.167Z,1.72
2019-04-23T00:02:51.191Z,1.80
2019-04-23T00:05:33.587Z,1.75
2019-04-23T00:07:57.003Z,1.70
2019-04-23T00:10:26.078Z,1.50
2019-04-23T00:12:50.952Z,1.82
2019-04-23T00:18:00.018Z,1.72
2019-04-23T00:20:21.998Z,2.02
2019-04-23T00:23:00.220Z,1.75
2019-04-23T00:28:06.602Z,1.90
2019-04-23T00:30:43.556Z,2.10
2019-04-23T00:33:07.475Z,1.82
2019-04-23T00:35:41.742Z,1.67
2019-04-23T00:38:13.091Z,2.00
2019-04-23T00:40:38.979Z,1.77
2019-04-23T00:43:09.185Z,1.70
2019-04-23T00:48:14.838Z,1.70
2019-04-23T00:50:44.784Z,1.70
2019-04-23T00:53:15.803Z,1.90
2019-04-23T00:55:42.714Z,1.90
2019-04-23T01:00:51.472Z,1.90
2019-04-23T01:03:12.161Z,2.22
2019-04-23T01:05:41.080Z,1.70
2019-04-23T01:13:33.066Z,1.77
2019-04-23T01:16:05.681Z,2.00
2019-04-23T01:18:51.340Z,1.70
2019-04-23T01:21:07.623Z,1.98
2019-04-23T01:23:44.496Z,1.98
2019-04-23T01:26:29.611Z,1.90
2019-04-23T01:29:08.310Z,1.72
2019-04-23T01:31:43.334Z,1.70
2019-04-23T01:34:13.404Z,1.80
2019-04-23T01:39:11.366Z,1.72
2019-04-23T01:41:41.488Z,1.90
2019-04-23T01:44:16.494Z,1.80
2019-04-23T01:46:42.046Z,1.80
2019-04-23T01:49:13.735Z,1.60
2019-04-23T01:51:46.837Z,1.77
2019-04-23T01:54:12.388Z,1.82
2019-04-23T01:56:39.973Z,1.70
2019-04-23T02:01:50.312Z,1.65
2019-04-23T02:04:26.591Z,1.50
2019-04-23T02:06:47.263Z,1.62
2019-04-23T02:09:16.821Z,1.80
2019-04-23T02:14:24.866Z,1.70
2019-04-23T02:16:53.213Z,1.77
2019-04-23T02:24:27.816Z,1.70
2019-04-23T02:27:05.877Z,1.80
2019-04-23T02:29:43.532Z,1.70
2019-04-23T02:32:01.345Z,1.87
2019-04-23T02:40:01.981Z,1.57
2019-04-23T02:47:17.589Z,1.70
2019-04-23T02:52:18.882Z,1.85
2019-04-23T02:57:29.784Z,1.72
2019-04-23T03:07:22.452Z,1.70
2019-04-23T03:12:27.258Z,1.75
2019-04-23T03:17:53.107Z,1.80
2019-04-23T03:20:21.861Z,1.92
2019-04-23T03:23:03.602Z,1.90
2019-04-23T03:25:33.998Z,2.00
2019-04-23T03:27:51.071Z,1.92
2019-04-23T03:30:49.854Z,1.90
2019-04-23T03:35:43.134Z,1.92
2019-04-23T03:38:16.546Z,2.00
2019-04-23T03:40:19.540Z,2.02
2019-04-23T03:43:19.958Z,1.90
2019-04-23T03:48:05.972Z,1.95
2019-04-23T03:50:41.557Z,2.00
2019-04-23T03:53:25.875Z,1.80
2019-04-23T03:55:39.880Z,2.47
2019-04-23T03:58:07.608Z,2.10
2019-04-23T04:06:03.361Z,1.90
2019-04-23T04:10:54.238Z,2.22
2019-04-23T04:13:15.487Z,1.80
2019-04-23T04:15:55.533Z,1.87
2019-04-23T04:18:33.147Z,2.12
2019-04-23T04:20:58.493Z,2.02
2019-04-23T04:25:48.593Z,2.08
2019-04-23T04:28:17.606Z,2.10
2019-04-23T04:35:57.940Z,2.15
2019-04-23T04:43:37.288Z,2.25
2019-04-23T04:48:27.244Z,2.20
2019-04-23T04:51:11.098Z,2.20
2019-04-23T04:56:09.765Z,2.10
2019-04-23T04:58:32.251Z,2.22
2019-04-23T05:03:28.546Z,2.42
2019-04-23T05:11:09.131Z,3.60
2019-04-23T05:18:38.629Z,2.30
2019-04-23T05:23:50.940Z,2.52
2019-04-23T05:26:20.978Z,1.90
2019-04-23T05:28:55.606Z,2.12
2019-04-23T05:31:27.989Z,2.20
2019-04-23T05:33:57.139Z,2.52
2019-04-23T05:36:48.224Z,2.62
2019-04-23T05:39:03.496Z,2.60
2019-04-23T05:41:27.047Z,2.30
2019-04-23T05:43:57.367Z,2.40
2019-04-23T05:46:27.771Z,2.70
2019-04-23T05:48:52.577Z,2.52
2019-04-23T05:51:33.500Z,2.08
2019-04-23T05:53:50.965Z,2.30
2019-04-23T05:56:20.671Z,2.55
2019-04-23T05:58:59.605Z,2.55
2019-04-23T06:04:17.550Z,2.87
2019-04-23T06:07:04.737Z,2.90
2019-04-23T06:09:07.843Z,2.77
2019-04-23T06:11:49.183Z,2.50
2019-04-23T06:19:09.595Z,2.92
2019-04-23T06:21:44.864Z,2.52
2019-04-23T06:24:16.573Z,2.60
2019-04-23T06:29:15.450Z,2.55
2019-04-23T06:31:43.998Z,2.83
2019-04-23T06:34:16.615Z,2.60
2019-04-23T06:36:37.113Z,3.05
2019-04-23T06:39:10.310Z,2.85
2019-04-23T06:41:46.470Z,2.85
2019-04-23T06:49:24.288Z,2.95
2019-04-23T06:52:06.822Z,2.98
2019-04-23T06:54:24.478Z,2.80
2019-04-23T06:57:05.454Z,2.90
2019-04-23T06:59:24.469Z,2.70
2019-04-23T07:02:04.251Z,3.27
2019-04-23T07:04:29.026Z,2.42
2019-04-23T07:09:26.330Z,2.95
2019-04-23T07:11:55.530Z,2.95
2019-04-23T07:14:35.874Z,2.55
2019-04-23T07:16:55.922Z,2.50
2019-04-23T07:19:33.051Z,2.50
2019-04-23T07:22:12.256Z,3.22
2019-04-23T07:24:29.858Z,2.70
2019-04-23T07:27:01.306Z,3.10
2019-04-23T07:29:31.452Z,4.45
2019-04-23T07:32:05.884Z,4.20
2019-04-23T07:34:28.200Z,4.17
2019-04-23T07:37:08.802Z,3.10
2019-04-23T07:40:11.033Z,2.80
2019-04-23T07:42:34.420Z,3.20
2019-04-23T07:45:17.554Z,3.00
2019-04-23T07:48:11.237Z,3.05
2019-04-23T07:50:41.248Z,2.77
2019-04-23T07:53:13.285Z,3.50
2019-04-23T07:55:58.952Z,3.17
2019-04-23T08:03:17.493Z,3.60
2019-04-23T08:05:39.603Z,3.25
2019-04-23T08:11:03.030Z,4.20
2019-04-23T08:13:22.727Z,3.10
2019-04-23T08:15:46.486Z,3.42
2019-04-23T08:18:18.099Z,3.20
2019-04-23T08:20:49.626Z,3.58
2019-04-23T08:23:28.319Z,3.70
2019-04-23T08:26:04.552Z,3.20
2019-04-23T08:31:05.600Z,3.02
2019-04-23T08:33:32.192Z,3.10
2019-04-23T08:36:04.050Z,3.02
2019-04-23T08:41:14.204Z,3.02
2019-04-23T08:43:42.779Z,4.08
2019-04-23T08:46:40.198Z,3.58
2019-04-23T08:48:58.687Z,4.17
2019-04-23T08:51:38.903Z,3.85
2019-04-23T08:53:55.480Z,3.30
2019-04-23T08:56:31.780Z,3.60
2019-04-23T08:58:53.617Z,3.83
2019-04-23T09:01:36.084Z,4.15
2019-04-23T09:04:05.720Z,4.08
2019-04-23T09:06:31.406Z,3.42
2019-04-23T09:08:56.553Z,3.67
2019-04-23T09:11:43.375Z,3.50
2019-04-23T09:14:04.611Z,3.37
2019-04-23T09:16:39.762Z,3.85
2019-04-23T09:19:08.829Z,3.65
2019-04-23T09:21:33.359Z,3.62
2019-04-23T09:24:04.231Z,4.17
2019-04-23T09:26:37.913Z,3.95
2019-04-23T09:29:04.423Z,4.08
2019-04-23T09:32:00.675Z,3.58
2019-04-23T09:34:26.101Z,3.70
2019-04-23T09:36:59.096Z,3.90
2019-04-23T09:39:30.761Z,3.42
2019-04-23T09:42:02.213Z,3.72
2019-04-23T09:47:24.570Z,3.62
2019-04-23T09:49:46.730Z,3.83
2019-04-23T09:52:20.436Z,3.42
2019-04-23T09:55:02.104Z,4.12
2019-04-23T09:57:15.938Z,3.85
2019-04-23T09:59:54.305Z,3.65
2019-04-23T10:02:10.532Z,3.98
2019-04-23T10:04:39.845Z,3.65
2019-04-23T10:07:06.791Z,4.10
2019-04-23T10:09:27.422Z,3.75
2019-04-23T10:11:55.756Z,3.55
2019-04-23T10:14:26.076Z,3.83
2019-04-23T10:16:55.750Z,4.20
2019-04-23T10:19:26.730Z,5.22
2019-04-23T10:21:55.559Z,4.62
2019-04-23T10:24:25.356Z,3.95
2019-04-23T10:26:55.702Z,4.10
2019-04-23T10:29:34.139Z,4.10
2019-04-23T10:32:03.850Z,4.40
2019-04-23T10:34:47.838Z,3.72
2019-04-23T10:37:05.375Z,4.17
2019-04-23T10:39:37.865Z,4.30
2019-04-23T10:42:05.863Z,4.40
2019-04-23T10:44:38.014Z,4.37
2019-04-23T10:47:58.360Z,3.92
2019-04-23T10:50:49.649Z,3.20
2019-04-23T10:53:26.827Z,3.77
2019-04-23T10:58:15.808Z,4.70
2019-04-23T11:03:32.079Z,4.22
2019-04-23T11:06:06.027Z,4.45
2019-04-23T11:08:19.937Z,4.65
2019-04-23T11:10:51.158Z,4.70
2019-04-23T11:13:38.255Z,4.42
2019-04-23T11:18:48.842Z,4.28
2019-04-23T11:21:13.982Z,4.17
2019-04-23T11:23:34.397Z,4.15
2019-04-23T11:31:14.369Z,3.92
2019-04-23T11:33:42.739Z,4.70
2019-04-23T11:38:55.997Z,4.83
2019-04-23T11:41:19.038Z,4.30
2019-04-23T11:46:43.180Z,4.40
2019-04-23T11:48:59.505Z,4.53
2019-04-23T11:53:52.531Z,5.00
2019-04-23T11:56:35.336Z,4.35
2019-04-23T11:58:45.945Z,4.15
2019-04-23T12:04:18.619Z,4.65
2019-04-23T12:09:48.807Z,4.33
2019-04-23T12:12:10.530Z,4.20
2019-04-23T12:15:13.423Z,4.17
2019-04-23T12:20:03.343Z,4.03
2019-04-23T12:27:31.569Z,5.55
2019-04-23T12:37:45.012Z,3.87
2019-04-23T12:40:24.971Z,4.03
2019-04-23T12:45:20.671Z,4.35
2019-04-23T12:52:46.858Z,4.62
2019-04-23T12:55:36.303Z,5.28
2019-04-23T12:58:03.491Z,5.10
2019-04-23T13:00:22.471Z,4.53
2019-04-23T13:02:59.284Z,3.95
2019-04-23T13:05:26.751Z,4.50
2019-04-23T13:10:28.355Z,5.58
2019-04-23T13:13:01.393Z,4.12
2019-04-23T13:20:27.560Z,5.12
2019-04-23T13:23:06.295Z,3.85
2019-04-23T13:25:35.146Z,3.67
2019-04-23T13:38:19.829Z,4.15
2019-04-23T13:40:50.525Z,3.40
2019-04-23T13:43:19.219Z,3.67
2019-04-23T13:45:59.234Z,3.77
2019-04-23T13:53:38.355Z,3.67
2019-04-23T13:55:49.105Z,4.45
2019-04-23T13:58:36.977Z,4.12
2019-04-23T14:01:01.280Z,3.92
2019-04-23T14:03:30.747Z,4.33
2019-04-23T14:06:04.897Z,4.10
2019-04-23T14:08:41.618Z,3.75
2019-04-23T14:10:51.905Z,4.65
2019-04-23T14:18:52.151Z,3.95
2019-04-23T14:21:15.956Z,3.75
2019-04-23T14:24:00.418Z,3.42
2019-04-23T14:26:20.777Z,3.47
2019-04-23T14:28:43.582Z,3.58
2019-04-23T14:31:15.236Z,4.67
2019-04-23T14:33:46.786Z,3.77
2019-04-23T14:36:17.361Z,5.50
2019-04-23T14:38:43.851Z,4.70
2019-04-23T14:41:21.749Z,4.05
2019-04-23T14:43:48.770Z,5.05
2019-04-23T14:48:53.649Z,3.90
2019-04-23T14:51:24.180Z,4.47
2019-04-23T14:58:57.767Z,4.03
2019-04-23T15:01:27.399Z,4.90
2019-04-23T15:06:27.768Z,4.37
2019-04-23T15:08:57.375Z,3.75
2019-04-23T15:11:29.521Z,3.00
2019-04-23T15:13:53.827Z,3.98
2019-04-23T15:19:23.721Z,4.03
2019-04-23T15:24:13.928Z,3.35
2019-04-23T15:28:49.072Z,3.83
2019-04-23T15:31:48.847Z,3.90
2019-04-23T15:34:13.547Z,4.00
2019-04-23T15:36:58.266Z,5.25
2019-04-23T15:39:18.676Z,4.08
2019-04-23T15:41:49.059Z,3.90
2019-04-23T15:49:22.927Z,6.42
2019-04-23T15:54:19.476Z,4.70
2019-04-23T15:56:50.526Z,4.95
2019-04-23T15:59:35.058Z,4.67
2019-04-23T16:01:39.694Z,3.47
2019-04-23T16:03:51.278Z,5.10
2019-04-23T16:06:23.426Z,4.08
2019-04-23T16:09:12.613Z,3.50
2019-04-23T16:16:55.177Z,4.28
2019-04-23T16:19:46.005Z,4.15
2019-04-23T16:24:36.210Z,4.08
2019-04-23T16:27:11.093Z,4.28
2019-04-23T16:29:55.450Z,4.00
2019-04-23T16:32:21.035Z,4.05
2019-04-23T16:34:40.888Z,4.60
2019-04-23T16:39:58.362Z,3.52
2019-04-23T16:42:24.873Z,3.85
2019-04-23T16:45:07.466Z,3.50
2019-04-23T16:47:24.600Z,3.67
2019-04-23T16:52:24.474Z,3.80
2019-04-23T16:54:55.083Z,3.67
2019-04-23T17:02:24.530Z,3.87
2019-04-23T17:05:05.668Z,3.83
2019-04-23T17:07:20.327Z,3.42
2019-04-23T17:10:07.872Z,5.00
2019-04-23T17:12:45.742Z,3.65
2019-04-23T17:15:05.353Z,3.70
2019-04-23T17:17:25.105Z,3.50
2019-04-23T17:20:16.075Z,4.20
2019-04-23T17:22:31.482Z,3.80
2019-04-23T17:25:16.051Z,3.45
2019-04-23T17:30:06.867Z,3.65
2019-04-23T17:33:02.769Z,3.90
2019-04-23T17:35:45.548Z,3.45
2019-04-23T17:38:20.018Z,3.87
2019-04-23T17:41:07.281Z,3.90
2019-04-23T17:43:32.370Z,3.52
2019-04-23T17:46:12.551Z,4.00
2019-04-23T17:48:40.158Z,3.65
2019-04-23T17:51:10.985Z,3.83
2019-04-23T17:53:40.047Z,3.70
2019-04-23T17:56:20.179Z,3.83
2019-04-23T18:01:20.321Z,4.10
2019-04-23T18:04:02.304Z,3.70
2019-04-23T18:08:53.957Z,3.85
2019-04-23T18:11:16.259Z,3.20
2019-04-23T18:13:49.804Z,3.80
2019-04-23T18:16:30.355Z,3.45
2019-04-23T18:21:29.545Z,3.72
2019-04-23T18:24:02.757Z,3.72
2019-04-23T18:26:29.023Z,3.17
2019-04-23T18:29:06.695Z,3.40
2019-04-23T18:31:59.745Z,3.20
2019-04-23T18:34:30.257Z,3.70
2019-04-23T18:36:45.892Z,3.60
2019-04-23T18:39:26.299Z,3.25
2019-04-23T18:42:04.016Z,3.92
2019-04-23T18:44:33.208Z,3.75
2019-04-23T18:46:48.991Z,3.70
2019-04-23T18:49:33.267Z,4.10
2019-04-23T18:52:20.972Z,3.85
2019-04-23T18:54:28.442Z,3.83
2019-04-23T18:57:09.958Z,4.00
2019-04-23T18:59:43.090Z,3.33
2019-04-23T19:02:08.050Z,3.52
2019-04-23T19:04:58.560Z,3.90
2019-04-23T19:07:27.335Z,3.40
2019-04-23T19:12:46.154Z,4.00
2019-04-23T19:25:16.355Z,5.58
2019-04-23T19:27:47.112Z,6.53
2019-04-23T19:30:38.866Z,5.17
2019-04-23T19:32:55.607Z,4.30
2019-04-23T19:35:51.944Z,4.87
2019-04-23T19:38:01.475Z,4.40
2019-04-23T19:40:28.331Z,4.05
2019-04-23T19:43:05.810Z,3.98
2019-04-23T19:45:29.179Z,4.37
2019-04-23T19:48:19.480Z,3.70
2019-04-23T19:50:47.120Z,3.58
2019-04-23T19:53:14.376Z,3.55
2019-04-23T19:55:30.502Z,3.87
2019-04-23T19:58:04.214Z,4.28
2019-04-23T20:01:01.995Z,3.77
2019-04-23T20:03:19.433Z,3.85
2019-04-23T20:05:43.348Z,3.87
2019-04-23T20:08:16.766Z,3.62
2019-04-23T20:10:39.526Z,4.20
2019-04-23T20:13:09.114Z,4.22
2019-04-23T20:15:59.540Z,4.47
2019-04-23T20:18:05.155Z,4.42
2019-04-23T20:23:26.303Z,3.98
2019-04-23T20:28:58.624Z,4.35
2019-04-23T20:32:07.212Z,4.40
2019-04-23T20:36:25.815Z,4.10
2019-04-23T20:38:57.446Z,4.20
2019-04-23T20:41:21.199Z,4.25
2019-04-23T20:43:52.166Z,3.83
2019-04-23T20:46:14.920Z,4.67
2019-04-23T20:48:53.628Z,3.90
2019-04-23T20:51:14.350Z,4.08
2019-04-23T20:56:25.383Z,4.10
2019-04-23T20:58:54.689Z,4.12
2019-04-23T21:01:48.172Z,4.03
2019-04-23T21:04:13.807Z,3.85
2019-04-23T21:06:48.811Z,4.50
2019-04-23T21:09:28.397Z,4.37
2019-04-23T21:16:56.051Z,4.33
2019-04-23T21:19:24.781Z,4.37
2019-04-23T21:22:13.440Z,4.60
2019-04-23T21:24:42.436Z,3.95
2019-04-23T21:27:35.467Z,4.25
2019-04-23T21:30:00.617Z,4.47
2019-04-23T21:32:27.231Z,4.33
2019-04-23T21:34:55.926Z,3.87
2019-04-23T21:37:48.095Z,4.53
2019-04-23T21:42:55.811Z,4.42
2019-04-23T21:45:17.468Z,4.67
2019-04-23T21:48:02.404Z,5.05
2019-04-23T21:52:54.182Z,4.75
2019-04-23T21:55:19.942Z,4.80
2019-04-23T21:57:59.954Z,4.30
2019-04-23T22:00:24.044Z,4.45
2019-04-23T22:05:25.072Z,4.78
2019-04-23T22:07:56.698Z,4.62
2019-04-23T22:10:27.401Z,5.25
2019-04-23T22:13:09.739Z,4.40
2019-04-23T22:15:34.340Z,4.10
2019-04-23T22:23:05.409Z,4.10
2019-04-23T22:25:37.728Z,4.67
2019-04-23T22:28:02.835Z,4.65
2019-04-23T22:30:31.576Z,5.15
2019-04-23T22:35:35.588Z,5.12
2019-04-23T22:38:21.079Z,5.08
2019-04-23T22:40:34.388Z,5.50
2019-04-23T22:45:44.427Z,5.10
2019-04-23T22:48:06.944Z,4.92
2019-04-23T22:50:48.070Z,4.60
2019-04-23T22:53:07.973Z,4.25
2019-04-23T22:55:52.868Z,4.92
2019-04-23T22:58:16.076Z,5.35
2019-04-23T23:00:46.401Z,5.22
2019-04-23T23:03:24.344Z,4.95
2019-04-23T23:08:21.168Z,5.05
2019-04-23T23:10:56.635Z,5.20
2019-04-23T23:13:35.397Z,4.75
2019-04-23T23:16:01.521Z,4.67
2019-04-23T23:18:22.938Z,5.12
2019-04-23T23:21:00.281Z,5.08
2019-04-23T23:26:02.383Z,4.40
2019-04-23T23:31:08.520Z,4.85
2019-04-23T23:33:36.226Z,5.03
2019-04-23T23:36:10.389Z,5.35
2019-04-23T23:43:41.286Z,5.30
2019-04-23T23:46:13.970Z,5.20
2019-04-23T23:48:39.267Z,5.03
2019-04-23T23:51:17.411Z,4.78
2019-04-23T23:53:51.277Z,5.65
2019-04-23T23:58:52.472Z,5.42
